sensor_id;sensor_type;location;lat;lon;timestamp;temperature;humidity
63383;DHT22;49512;48.744;9.176;2023-03-01T00:02:17;11.10;99.90
63383;DHT22;49512;48.744;9.176;2023-03-01T00:04:42;11.10;99.90
63383;DHT22;49512;48.744;9.176;2023-03-01T00:07:08;11.10;99.90
63383;DHT22;49512;48.744;9.176;2023-03-01T00:09:33;11.10;99.90
63383;DHT22;49512;48.744;9.176;2023-03-01T00:11:59;11.10;99.90
63383;DHT22;49512;48.744;9.176;2023-03-01T00:16:50;11.10;99.90
63383;DHT22;49512;48.744;9.176;2023-03-01T00:19:17;11.10;99.90
63383;DHT22;49512;48.744;9.176;2023-03-01T00:21:43;11.10;99.90
63383;DHT22;49512;48.744;9.176;2023-03-01T00:24:09;11.10;99.90
63383;DHT22;49512;48.744;9.176;2023-03-01T00:26:35;11.10;99.90
63383;DHT22;49512;48.744;9.176;2023-03-01T00:29:01;11.10;99.90
63383;DHT22;49512;48.744;9.176;2023-03-01T00:31:27;11.10;99.90
63383;DHT22;49512;48.744;9.176;2023-03-01T00:34:01;11.10;99.90
63383;DHT22;49512;48.744;9.176;2023-03-01T00:36:31;11.10;99.90
63383;DHT22;49512;48.744;9.176;2023-03-01T00:38:56;11.10;99.90
63383;DHT22;49512;48.744;9.176;2023-03-01T00:41:22;11.10;99.90
63383;DHT22;49512;48.744;9.176;2023-03-01T00:43:48;11.10;99.90
63383;DHT22;49512;48.744;9.176;2023-03-01T00:46:15;11.10;99.90
63383;DHT22;49512;48.744;9.176;2023-03-01T00:48:41;11.00;99.90
63383;DHT22;49512;48.744;9.176;2023-03-01T00:53:35;11.10;99.90
63383;DHT22;49512;48.744;9.176;2023-03-01T00:56:01;11.00;99.90
63383;DHT22;49512;48.744;9.176;2023-03-01T00:58:27;11.10;99.90
63383;DHT22;49512;48.744;9.176;2023-03-01T01:00:52;11.10;99.90
63383;DHT22;49512;48.744;9.176;2023-03-01T01:03:18;11.00;99.90
63383;DHT22;49512;48.744;9.176;2023-03-01T01:05:44;11.10;99.90
63383;DHT22;49512;48.744;9.176;2023-03-01T01:08:09;11.00;99.90
63383;DHT22;49512;48.744;9.176;2023-03-01T01:10:34;11.10;99.90
63383;DHT22;49512;48.744;9.176;2023-03-01T01:13:00;11.00;99.90
63383;DHT22;49512;48.744;9.176;2023-03-01T01:15:26;11.00;99.90
63383;DHT22;49512;48.744;9.176;2023-03-01T01:17:51;11.10;99.90
63383;DHT22;49512;48.744;9.176;2023-03-01T01:20:17;11.10;99.90
63383;DHT22;49512;48.744;9.176;2023-03-01T01:22:43;11.00;99.90
63383;DHT22;49512;48.744;9.176;2023-03-01T01:25:08;11.00;99.90
63383;DHT22;49512;48.744;9.176;2023-03-01T01:27:34;11.00;99.90
63383;DHT22;49512;48.744;9.176;2023-03-01T01:29:59;11.10;99.90
63383;DHT22;49512;48.744;9.176;2023-03-01T01:32:25;11.00;99.90
63383;DHT22;49512;48.744;9.176;2023-03-01T01:34:50;11.00;99.90
63383;DHT22;49512;48.744;9.176;2023-03-01T01:37:16;11.00;99.90
63383;DHT22;49512;48.744;9.176;2023-03-01T01:39:41;11.00;99.90
63383;DHT22;49512;48.744;9.176;2023-03-01T01:42:11;11.00;99.90
63383;DHT22;49512;48.744;9.176;2023-03-01T01:44:39;11.00;99.90
63383;DHT22;49512;48.744;9.176;2023-03-01T01:47:06;11.00;99.90
63383;DHT22;49512;48.744;9.176;2023-03-01T01:57:09;11.10;99.90
63383;DHT22;49512;48.744;9.176;2023-03-01T01:59:36;11.00;99.90
63383;DHT22;49512;48.744;9.176;2023-03-01T02:02:02;11.00;99.90
63383;DHT22;49512;48.744;9.176;2023-03-01T02:04:29;11.00;99.90
63383;DHT22;49512;48.744;9.176;2023-03-01T02:06:59;11.00;99.90
63383;DHT22;49512;48.744;9.176;2023-03-01T02:09:25;11.00;99.90
63383;DHT22;49512;48.744;9.176;2023-03-01T02:11:52;11.50;99.90
63383;DHT22;49512;48.744;9.176;2023-03-01T02:14:18;11.00;99.90
63383;DHT22;49512;48.744;9.176;2023-03-01T02:16:44;11.00;99.90
63383;DHT22;49512;48.744;9.176;2023-03-01T02:19:11;11.00;99.90
63383;DHT22;49512;48.744;9.176;2023-03-01T02:24:49;11.00;99.90
63383;DHT22;49512;48.744;9.176;2023-03-01T02:26:53;11.00;99.90
63383;DHT22;49512;48.744;9.176;2023-03-01T02:29:20;11.00;99.90
63383;DHT22;49512;48.744;9.176;2023-03-01T02:31:46;11.00;99.90
63383;DHT22;49512;48.744;9.176;2023-03-01T02:34:13;11.00;99.90
63383;DHT22;49512;48.744;9.176;2023-03-01T02:36:47;11.60;99.90
63383;DHT22;49512;48.744;9.176;2023-03-01T02:39:14;11.00;99.90
63383;DHT22;49512;48.744;9.176;2023-03-01T02:41:42;10.90;99.90
63383;DHT22;49512;48.744;9.176;2023-03-01T02:44:09;11.00;99.90
63383;DHT22;49512;48.744;9.176;2023-03-01T02:46:41;10.90;99.90
63383;DHT22;49512;48.744;9.176;2023-03-01T02:49:21;11.00;99.90
63383;DHT22;49512;48.744;9.176;2023-03-01T02:51:56;11.00;99.90
63383;DHT22;49512;48.744;9.176;2023-03-01T02:54:40;11.00;99.90
63383;DHT22;49512;48.744;9.176;2023-03-01T02:57:06;11.00;99.90
63383;DHT22;49512;48.744;9.176;2023-03-01T02:59:33;11.00;99.90
63383;DHT22;49512;48.744;9.176;2023-03-01T03:02:08;11.00;99.90
63383;DHT22;49512;48.744;9.176;2023-03-01T03:04:45;11.00;99.90
63383;DHT22;49512;48.744;9.176;2023-03-01T03:07:10;10.90;99.90
63383;DHT22;49512;48.744;9.176;2023-03-01T03:09:36;10.90;99.90
63383;DHT22;49512;48.744;9.176;2023-03-01T03:12:01;10.90;99.90
63383;DHT22;49512;48.744;9.176;2023-03-01T03:14:27;10.90;99.90
63383;DHT22;49512;48.744;9.176;2023-03-01T03:16:52;10.90;99.90
63383;DHT22;49512;48.744;9.176;2023-03-01T03:19:18;10.90;99.90
63383;DHT22;49512;48.744;9.176;2023-03-01T03:21:44;10.90;99.90
63383;DHT22;49512;48.744;9.176;2023-03-01T03:24:09;10.90;99.90
63383;DHT22;49512;48.744;9.176;2023-03-01T03:26:35;10.90;99.90
63383;DHT22;49512;48.744;9.176;2023-03-01T03:29:00;10.90;99.90
63383;DHT22;49512;48.744;9.176;2023-03-01T03:31:26;10.90;99.90
63383;DHT22;49512;48.744;9.176;2023-03-01T03:33:52;10.90;99.90
63383;DHT22;49512;48.744;9.176;2023-03-01T03:36:18;11.00;99.90
63383;DHT22;49512;48.744;9.176;2023-03-01T03:38:44;10.90;99.90
63383;DHT22;49512;48.744;9.176;2023-03-01T03:41:11;10.90;99.90
63383;DHT22;49512;48.744;9.176;2023-03-01T03:43:37;10.90;99.90
63383;DHT22;49512;48.744;9.176;2023-03-01T03:46:03;10.90;99.90
63383;DHT22;49512;48.744;9.176;2023-03-01T03:48:31;10.90;99.90
63383;DHT22;49512;48.744;9.176;2023-03-01T03:50:58;10.90;99.90
63383;DHT22;49512;48.744;9.176;2023-03-01T03:53:24;10.90;99.90
63383;DHT22;49512;48.744;9.176;2023-03-01T03:55:49;10.90;99.90
63383;DHT22;49512;48.744;9.176;2023-03-01T03:58:17;10.90;99.90
63383;DHT22;49512;48.744;9.176;2023-03-01T04:00:45;10.90;99.90
63383;DHT22;49512;48.744;9.176;2023-03-01T04:03:12;10.90;99.90
63383;DHT22;49512;48.744;9.176;2023-03-01T04:05:38;10.90;99.90
63383;DHT22;49512;48.744;9.176;2023-03-01T04:08:04;10.90;99.90
63383;DHT22;49512;48.744;9.176;2023-03-01T04:11:01;10.90;99.90
63383;DHT22;49512;48.744;9.176;2023-03-01T04:13:21;10.90;99.90
63383;DHT22;49512;48.744;9.176;2023-03-01T04:15:53;10.90;99.90
63383;DHT22;49512;48.744;9.176;2023-03-01T04:18:20;10.90;99.90
63383;DHT22;49512;48.744;9.176;2023-03-01T04:20:46;10.90;99.90
63383;DHT22;49512;48.744;9.176;2023-03-01T04:23:16;10.90;99.90
63383;DHT22;49512;48.744;9.176;2023-03-01T04:28:15;10.90;99.90
63383;DHT22;49512;48.744;9.176;2023-03-01T04:30:40;10.90;99.90
63383;DHT22;49512;48.744;9.176;2023-03-01T04:33:06;10.70;99.90
63383;DHT22;49512;48.744;9.176;2023-03-01T04:35:32;10.90;99.90
63383;DHT22;49512;48.744;9.176;2023-03-01T04:37:58;10.90;99.90
63383;DHT22;49512;48.744;9.176;2023-03-01T04:40:24;10.90;99.90
63383;DHT22;49512;48.744;9.176;2023-03-01T04:42:50;10.90;99.90
63383;DHT22;49512;48.744;9.176;2023-03-01T04:45:15;10.90;99.90
63383;DHT22;49512;48.744;9.176;2023-03-01T04:47:42;10.90;99.90
63383;DHT22;49512;48.744;9.176;2023-03-01T04:50:12;10.90;99.90
63383;DHT22;49512;48.744;9.176;2023-03-01T04:52:38;10.90;99.90
63383;DHT22;49512;48.744;9.176;2023-03-01T04:55:03;10.90;99.90
63383;DHT22;49512;48.744;9.176;2023-03-01T04:57:29;10.80;99.90
63383;DHT22;49512;48.744;9.176;2023-03-01T04:59:55;10.90;99.90
63383;DHT22;49512;48.744;9.176;2023-03-01T05:02:20;10.90;99.90
63383;DHT22;49512;48.744;9.176;2023-03-01T05:04:46;10.90;99.90
63383;DHT22;49512;48.744;9.176;2023-03-01T05:07:11;10.90;99.90
63383;DHT22;49512;48.744;9.176;2023-03-01T05:09:38;10.90;99.90
63383;DHT22;49512;48.744;9.176;2023-03-01T05:12:04;10.90;99.90
63383;DHT22;49512;48.744;9.176;2023-03-01T05:14:30;10.90;99.90
63383;DHT22;49512;48.744;9.176;2023-03-01T05:16:55;10.80;99.90
63383;DHT22;49512;48.744;9.176;2023-03-01T05:19:29;10.90;99.90
63383;DHT22;49512;48.744;9.176;2023-03-01T05:21:56;10.80;99.90
63383;DHT22;49512;48.744;9.176;2023-03-01T05:24:32;10.90;99.90
63383;DHT22;49512;48.744;9.176;2023-03-01T05:26:58;10.90;99.90
63383;DHT22;49512;48.744;9.176;2023-03-01T05:29:25;10.90;99.90
63383;DHT22;49512;48.744;9.176;2023-03-01T05:31:57;10.80;99.90
63383;DHT22;49512;48.744;9.176;2023-03-01T05:34:33;10.90;99.90
63383;DHT22;49512;48.744;9.176;2023-03-01T05:36:59;12.60;99.90
63383;DHT22;49512;48.744;9.176;2023-03-01T05:39:25;10.90;99.90
63383;DHT22;49512;48.744;9.176;2023-03-01T05:41:58;10.90;99.90
63383;DHT22;49512;48.744;9.176;2023-03-01T05:44:23;11.00;99.90
63383;DHT22;49512;48.744;9.176;2023-03-01T05:46:49;10.90;99.90
63383;DHT22;49512;48.744;9.176;2023-03-01T05:49:15;10.90;99.90
63383;DHT22;49512;48.744;9.176;2023-03-01T05:51:42;10.90;99.90
63383;DHT22;49512;48.744;9.176;2023-03-01T05:54:08;10.80;99.90
63383;DHT22;49512;48.744;9.176;2023-03-01T05:56:34;10.90;99.90
63383;DHT22;49512;48.744;9.176;2023-03-01T05:59:00;10.90;99.90
63383;DHT22;49512;48.744;9.176;2023-03-01T06:01:26;10.90;99.90
63383;DHT22;49512;48.744;9.176;2023-03-01T06:03:51;10.90;99.90
63383;DHT22;49512;48.744;9.176;2023-03-01T06:06:17;10.90;99.90
63383;DHT22;49512;48.744;9.176;2023-03-01T06:08:43;10.90;99.90
63383;DHT22;49512;48.744;9.176;2023-03-01T06:11:08;10.90;99.90
63383;DHT22;49512;48.744;9.176;2023-03-01T06:13:34;10.80;99.90
63383;DHT22;49512;48.744;9.176;2023-03-01T06:15:59;10.90;99.90
63383;DHT22;49512;48.744;9.176;2023-03-01T06:18:25;10.90;99.90
63383;DHT22;49512;48.744;9.176;2023-03-01T06:20:54;10.90;99.90
63383;DHT22;49512;48.744;9.176;2023-03-01T06:23:19;10.90;99.90
63383;DHT22;49512;48.744;9.176;2023-03-01T06:25:45;10.90;99.90
63383;DHT22;49512;48.744;9.176;2023-03-01T06:28:10;10.90;99.90
63383;DHT22;49512;48.744;9.176;2023-03-01T06:30:36;10.90;99.90
63383;DHT22;49512;48.744;9.176;2023-03-01T06:33:01;10.80;99.90
63383;DHT22;49512;48.744;9.176;2023-03-01T06:35:29;10.80;99.90
63383;DHT22;49512;48.744;9.176;2023-03-01T06:37:56;10.80;99.90
63383;DHT22;49512;48.744;9.176;2023-03-01T06:40:22;10.90;99.90
63383;DHT22;49512;48.744;9.176;2023-03-01T06:42:49;10.90;99.90
63383;DHT22;49512;48.744;9.176;2023-03-01T06:45:14;12.60;99.90
63383;DHT22;49512;48.744;9.176;2023-03-01T06:47:40;10.90;99.90
63383;DHT22;49512;48.744;9.176;2023-03-01T06:50:06;10.90;99.90
63383;DHT22;49512;48.744;9.176;2023-03-01T06:52:31;10.90;99.90
63383;DHT22;49512;48.744;9.176;2023-03-01T06:54:57;10.90;99.90
63383;DHT22;49512;48.744;9.176;2023-03-01T06:57:22;10.80;99.90
63383;DHT22;49512;48.744;9.176;2023-03-01T06:59:48;10.90;99.90
63383;DHT22;49512;48.744;9.176;2023-03-01T07:02:13;10.80;99.90
63383;DHT22;49512;48.744;9.176;2023-03-01T07:04:40;10.80;99.90
63383;DHT22;49512;48.744;9.176;2023-03-01T07:07:06;10.90;99.90
63383;DHT22;49512;48.744;9.176;2023-03-01T07:09:31;10.90;99.90
63383;DHT22;49512;48.744;9.176;2023-03-01T07:11:57;10.90;99.90
63383;DHT22;49512;48.744;9.176;2023-03-01T07:14:23;10.90;99.90
63383;DHT22;49512;48.744;9.176;2023-03-01T07:16:51;10.90;99.90
63383;DHT22;49512;48.744;9.176;2023-03-01T07:19:16;10.80;99.90
63383;DHT22;49512;48.744;9.176;2023-03-01T07:21:41;10.70;99.90
63383;DHT22;49512;48.744;9.176;2023-03-01T07:24:07;10.80;99.90
63383;DHT22;49512;48.744;9.176;2023-03-01T07:26:33;10.80;99.90
63383;DHT22;49512;48.744;9.176;2023-03-01T07:28:59;10.80;99.90
63383;DHT22;49512;48.744;9.176;2023-03-01T07:31:25;10.90;99.90
63383;DHT22;49512;48.744;9.176;2023-03-01T07:33:53;10.90;99.90
63383;DHT22;49512;48.744;9.176;2023-03-01T07:36:18;10.90;99.90
63383;DHT22;49512;48.744;9.176;2023-03-01T07:38:44;10.90;99.90
63383;DHT22;49512;48.744;9.176;2023-03-01T07:41:09;10.90;99.90
63383;DHT22;49512;48.744;9.176;2023-03-01T07:43:35;11.90;99.90
63383;DHT22;49512;48.744;9.176;2023-03-01T07:46:00;10.90;99.90
63383;DHT22;49512;48.744;9.176;2023-03-01T07:48:26;10.90;99.90
63383;DHT22;49512;48.744;9.176;2023-03-01T07:50:52;11.00;99.90
63383;DHT22;49512;48.744;9.176;2023-03-01T07:53:17;10.90;99.90
63383;DHT22;49512;48.744;9.176;2023-03-01T07:55:43;10.90;99.90
63383;DHT22;49512;48.744;9.176;2023-03-01T07:58:08;10.90;99.90
63383;DHT22;49512;48.744;9.176;2023-03-01T08:00:34;10.90;99.90
63383;DHT22;49512;48.744;9.176;2023-03-01T08:03:00;10.90;99.90
63383;DHT22;49512;48.744;9.176;2023-03-01T08:05:26;10.90;99.90
63383;DHT22;49512;48.744;9.176;2023-03-01T08:07:51;11.00;99.90
63383;DHT22;49512;48.744;9.176;2023-03-01T08:10:17;11.00;99.90
63383;DHT22;49512;48.744;9.176;2023-03-01T08:12:43;10.80;99.90
63383;DHT22;49512;48.744;9.176;2023-03-01T08:15:08;10.90;99.90
63383;DHT22;49512;48.744;9.176;2023-03-01T08:17:34;10.90;99.90
63383;DHT22;49512;48.744;9.176;2023-03-01T08:19:59;11.10;99.90
63383;DHT22;49512;48.744;9.176;2023-03-01T08:22:25;11.00;99.90
63383;DHT22;49512;48.744;9.176;2023-03-01T08:24:51;11.00;99.90
63383;DHT22;49512;48.744;9.176;2023-03-01T08:27:16;11.00;99.90
63383;DHT22;49512;48.744;9.176;2023-03-01T08:29:42;11.00;99.90
63383;DHT22;49512;48.744;9.176;2023-03-01T08:32:07;11.00;99.90
63383;DHT22;49512;48.744;9.176;2023-03-01T08:34:33;11.00;99.90
63383;DHT22;49512;48.744;9.176;2023-03-01T08:37:01;11.00;99.90
63383;DHT22;49512;48.744;9.176;2023-03-01T08:39:26;11.00;99.90
63383;DHT22;49512;48.744;9.176;2023-03-01T08:41:52;11.00;99.90
63383;DHT22;49512;48.744;9.176;2023-03-01T08:44:17;11.00;99.90
63383;DHT22;49512;48.744;9.176;2023-03-01T08:46:43;11.00;99.90
63383;DHT22;49512;48.744;9.176;2023-03-01T08:49:11;11.00;99.90
63383;DHT22;49512;48.744;9.176;2023-03-01T08:51:37;11.10;99.90
63383;DHT22;49512;48.744;9.176;2023-03-01T08:54:07;11.00;99.90
63383;DHT22;49512;48.744;9.176;2023-03-01T08:56:33;11.00;99.90
63383;DHT22;49512;48.744;9.176;2023-03-01T08:58:59;11.10;99.90
63383;DHT22;49512;48.744;9.176;2023-03-01T09:01:25;11.10;99.90
63383;DHT22;49512;48.744;9.176;2023-03-01T09:03:51;11.00;99.90
63383;DHT22;49512;48.744;9.176;2023-03-01T09:06:16;11.10;99.90
63383;DHT22;49512;48.744;9.176;2023-03-01T09:08:43;11.10;99.90
63383;DHT22;49512;48.744;9.176;2023-03-01T09:11:09;11.10;99.90
63383;DHT22;49512;48.744;9.176;2023-03-01T09:13:35;11.10;99.90
63383;DHT22;49512;48.744;9.176;2023-03-01T09:16:02;11.10;99.90
63383;DHT22;49512;48.744;9.176;2023-03-01T09:18:28;11.10;99.90
63383;DHT22;49512;48.744;9.176;2023-03-01T09:21:00;11.10;99.90
63383;DHT22;49512;48.744;9.176;2023-03-01T09:23:25;11.10;99.90
63383;DHT22;49512;48.744;9.176;2023-03-01T09:25:50;11.10;99.90
63383;DHT22;49512;48.744;9.176;2023-03-01T09:28:17;11.10;99.90
63383;DHT22;49512;48.744;9.176;2023-03-01T09:30:43;11.20;99.90
63383;DHT22;49512;48.744;9.176;2023-03-01T09:33:08;11.10;99.90
63383;DHT22;49512;48.744;9.176;2023-03-01T09:35:40;11.20;99.90
63383;DHT22;49512;48.744;9.176;2023-03-01T09:38:12;11.20;99.90
63383;DHT22;49512;48.744;9.176;2023-03-01T09:40:41;11.20;99.90
63383;DHT22;49512;48.744;9.176;2023-03-01T09:43:25;11.10;99.90
63383;DHT22;49512;48.744;9.176;2023-03-01T09:45:52;11.20;99.90
63383;DHT22;49512;48.744;9.176;2023-03-01T09:48:20;11.10;99.90
63383;DHT22;49512;48.744;9.176;2023-03-01T09:50:48;11.20;99.90
63383;DHT22;49512;48.744;9.176;2023-03-01T09:55:44;11.10;99.90
63383;DHT22;49512;48.744;9.176;2023-03-01T10:00:41;11.10;99.90
63383;DHT22;49512;48.744;9.176;2023-03-01T10:11:04;11.10;99.90
63383;DHT22;49512;48.744;9.176;2023-03-01T10:14:05;11.10;99.90
63383;DHT22;49512;48.744;9.176;2023-03-01T10:16:28;11.20;99.90
63383;DHT22;49512;48.744;9.176;2023-03-01T10:19:00;12.20;99.90
63383;DHT22;49512;48.744;9.176;2023-03-01T10:21:27;11.10;99.90
63383;DHT22;49512;48.744;9.176;2023-03-01T10:23:53;11.10;99.90
63383;DHT22;49512;48.744;9.176;2023-03-01T10:26:42;11.10;99.90
63383;DHT22;49512;48.744;9.176;2023-03-01T10:29:10;11.10;99.90
63383;DHT22;49512;48.744;9.176;2023-03-01T10:31:38;11.10;99.90
63383;DHT22;49512;48.744;9.176;2023-03-01T10:34:11;11.10;99.90
63383;DHT22;49512;48.744;9.176;2023-03-01T10:36:37;11.10;99.90
63383;DHT22;49512;48.744;9.176;2023-03-01T10:39:03;11.10;99.90
63383;DHT22;49512;48.744;9.176;2023-03-01T10:41:35;11.10;99.90
63383;DHT22;49512;48.744;9.176;2023-03-01T10:44:09;11.10;99.90
63383;DHT22;49512;48.744;9.176;2023-03-01T10:46:58;11.20;99.90
63383;DHT22;49512;48.744;9.176;2023-03-01T10:49:25;11.20;99.90
63383;DHT22;49512;48.744;9.176;2023-03-01T10:51:52;11.20;99.90
63383;DHT22;49512;48.744;9.176;2023-03-01T10:54:28;11.10;99.90
63383;DHT22;49512;48.744;9.176;2023-03-01T10:56:54;11.10;99.90
63383;DHT22;49512;48.744;9.176;2023-03-01T11:00:00;11.20;99.90
63383;DHT22;49512;48.744;9.176;2023-03-01T11:02:18;11.20;99.90
63383;DHT22;49512;48.744;9.176;2023-03-01T11:05:00;11.10;99.90
63383;DHT22;49512;48.744;9.176;2023-03-01T11:07:26;11.20;99.90
63383;DHT22;49512;48.744;9.176;2023-03-01T11:09:51;11.20;99.90
63383;DHT22;49512;48.744;9.176;2023-03-01T11:12:17;11.20;99.90
63383;DHT22;49512;48.744;9.176;2023-03-01T11:14:50;11.10;99.90
63383;DHT22;49512;48.744;9.176;2023-03-01T11:17:28;11.20;99.90
63383;DHT22;49512;48.744;9.176;2023-03-01T11:22:53;11.20;99.90
63383;DHT22;49512;48.744;9.176;2023-03-01T11:25:19;11.20;99.90
63383;DHT22;49512;48.744;9.176;2023-03-01T11:27:47;11.20;99.90
63383;DHT22;49512;48.744;9.176;2023-03-01T11:30:16;11.30;99.90
63383;DHT22;49512;48.744;9.176;2023-03-01T11:32:45;11.30;99.90
63383;DHT22;49512;48.744;9.176;2023-03-01T11:35:22;11.20;99.90
63383;DHT22;49512;48.744;9.176;2023-03-01T11:40:24;11.20;99.90
63383;DHT22;49512;48.744;9.176;2023-03-01T11:43:02;11.20;99.90
63383;DHT22;49512;48.744;9.176;2023-03-01T11:45:32;11.20;99.90
63383;DHT22;49512;48.744;9.176;2023-03-01T12:06:23;11.30;99.90
63383;DHT22;49512;48.744;9.176;2023-03-01T12:11:39;11.20;99.90
63383;DHT22;49512;48.744;9.176;2023-03-01T12:34:42;11.30;99.90
63383;DHT22;49512;48.744;9.176;2023-03-01T12:37:15;11.20;99.90
63383;DHT22;49512;48.744;9.176;2023-03-01T12:42:26;11.30;99.90
63383;DHT22;49512;48.744;9.176;2023-03-01T12:50:04;11.30;99.90
63383;DHT22;49512;48.744;9.176;2023-03-01T12:52:38;11.30;99.90
63383;DHT22;49512;48.744;9.176;2023-03-01T12:55:06;11.30;99.90
63383;DHT22;49512;48.744;9.176;2023-03-01T12:57:56;11.30;99.90
63383;DHT22;49512;48.744;9.176;2023-03-01T13:00:31;11.30;99.90
63383;DHT22;49512;48.744;9.176;2023-03-01T13:03:00;11.30;99.90
63383;DHT22;49512;48.744;9.176;2023-03-01T13:05:52;11.30;99.90
63383;DHT22;49512;48.744;9.176;2023-03-01T13:08:27;11.30;99.90
63383;DHT22;49512;48.744;9.176;2023-03-01T13:11:02;11.30;99.90
63383;DHT22;49512;48.744;9.176;2023-03-01T13:13:28;11.30;99.90
63383;DHT22;49512;48.744;9.176;2023-03-01T13:15:54;11.30;99.90
63383;DHT22;49512;48.744;9.176;2023-03-01T13:23:23;11.30;99.90
63383;DHT22;49512;48.744;9.176;2023-03-01T13:31:06;11.30;99.90
63383;DHT22;49512;48.744;9.176;2023-03-01T13:33:33;11.30;99.90
63383;DHT22;49512;48.744;9.176;2023-03-01T13:36:05;11.30;99.90
63383;DHT22;49512;48.744;9.176;2023-03-01T13:41:02;11.20;99.90
63383;DHT22;49512;48.744;9.176;2023-03-01T13:43:40;11.30;99.90
63383;DHT22;49512;48.744;9.176;2023-03-01T13:46:17;11.30;99.90
63383;DHT22;49512;48.744;9.176;2023-03-01T13:48:45;11.20;99.90
63383;DHT22;49512;48.744;9.176;2023-03-01T13:51:13;11.20;99.90
63383;DHT22;49512;48.744;9.176;2023-03-01T13:53:40;11.20;99.90
63383;DHT22;49512;48.744;9.176;2023-03-01T13:56:11;11.30;99.90
63383;DHT22;49512;48.744;9.176;2023-03-01T13:59:20;11.30;99.90
63383;DHT22;49512;48.744;9.176;2023-03-01T14:01:28;11.40;99.90
63383;DHT22;49512;48.744;9.176;2023-03-01T14:03:54;11.40;99.90
63383;DHT22;49512;48.744;9.176;2023-03-01T14:06:27;11.40;99.90
63383;DHT22;49512;48.744;9.176;2023-03-01T14:09:09;11.40;99.90
63383;DHT22;49512;48.744;9.176;2023-03-01T14:14:58;11.40;99.90
63383;DHT22;49512;48.744;9.176;2023-03-01T14:19:54;11.40;99.90
63383;DHT22;49512;48.744;9.176;2023-03-01T14:24:47;11.40;99.90
63383;DHT22;49512;48.744;9.176;2023-03-01T14:27:17;11.50;99.90
63383;DHT22;49512;48.744;9.176;2023-03-01T14:29:43;11.50;99.90
63383;DHT22;49512;48.744;9.176;2023-03-01T14:32:15;11.50;99.90
63383;DHT22;49512;48.744;9.176;2023-03-01T14:34:44;11.50;99.90
63383;DHT22;49512;48.744;9.176;2023-03-01T14:37:27;11.50;99.90
63383;DHT22;49512;48.744;9.176;2023-03-01T14:39:57;11.50;99.90
63383;DHT22;49512;48.744;9.176;2023-03-01T14:42:23;11.50;99.90
63383;DHT22;49512;48.744;9.176;2023-03-01T14:44:51;11.50;99.90
63383;DHT22;49512;48.744;9.176;2023-03-01T14:47:39;11.50;99.90
63383;DHT22;49512;48.744;9.176;2023-03-01T14:50:06;11.50;99.90
63383;DHT22;49512;48.744;9.176;2023-03-01T14:52:36;11.50;99.90
63383;DHT22;49512;48.744;9.176;2023-03-01T14:55:04;11.50;99.90
63383;DHT22;49512;48.744;9.176;2023-03-01T14:57:29;11.50;99.90
63383;DHT22;49512;48.744;9.176;2023-03-01T14:59:57;11.50;99.90
63383;DHT22;49512;48.744;9.176;2023-03-01T15:02:25;11.50;99.90
63383;DHT22;49512;48.744;9.176;2023-03-01T15:04:54;11.50;99.90
63383;DHT22;49512;48.744;9.176;2023-03-01T15:07:22;11.60;99.90
63383;DHT22;49512;48.744;9.176;2023-03-01T15:09:51;11.60;99.90
63383;DHT22;49512;48.744;9.176;2023-03-01T15:12:36;11.60;99.90
63383;DHT22;49512;48.744;9.176;2023-03-01T15:15:18;11.50;99.90
63383;DHT22;49512;48.744;9.176;2023-03-01T15:17:44;11.60;99.90
63383;DHT22;49512;48.744;9.176;2023-03-01T15:20:16;11.60;99.90
63383;DHT22;49512;48.744;9.176;2023-03-01T15:22:45;11.50;99.90
63383;DHT22;49512;48.744;9.176;2023-03-01T15:25:15;11.60;99.90
63383;DHT22;49512;48.744;9.176;2023-03-01T15:27:44;11.50;99.90
63383;DHT22;49512;48.744;9.176;2023-03-01T15:30:21;11.50;99.90
63383;DHT22;49512;48.744;9.176;2023-03-01T15:32:47;11.60;99.90
63383;DHT22;49512;48.744;9.176;2023-03-01T15:35:37;11.50;99.90
63383;DHT22;49512;48.744;9.176;2023-03-01T15:38:22;11.60;99.90
63383;DHT22;49512;48.744;9.176;2023-03-01T15:40:49;11.50;99.90
63383;DHT22;49512;48.744;9.176;2023-03-01T15:43:36;11.50;99.90
63383;DHT22;49512;48.744;9.176;2023-03-01T15:46:00;11.50;99.90
63383;DHT22;49512;48.744;9.176;2023-03-01T15:48:26;11.50;99.90
63383;DHT22;49512;48.744;9.176;2023-03-01T15:50:56;11.50;99.90
63383;DHT22;49512;48.744;9.176;2023-03-01T15:53:22;11.50;99.90
63383;DHT22;49512;48.744;9.176;2023-03-01T15:55:48;11.50;99.90
63383;DHT22;49512;48.744;9.176;2023-03-01T15:58:17;11.50;99.90
63383;DHT22;49512;48.744;9.176;2023-03-01T16:00:43;11.50;99.90
63383;DHT22;49512;48.744;9.176;2023-03-01T16:03:10;11.50;99.90
63383;DHT22;49512;48.744;9.176;2023-03-01T16:05:37;11.50;99.90
63383;DHT22;49512;48.744;9.176;2023-03-01T16:08:03;11.50;99.90
63383;DHT22;49512;48.744;9.176;2023-03-01T16:10:30;11.50;99.90
63383;DHT22;49512;48.744;9.176;2023-03-01T16:12:56;11.50;99.90
63383;DHT22;49512;48.744;9.176;2023-03-01T16:15:26;11.60;99.90
63383;DHT22;49512;48.744;9.176;2023-03-01T16:17:52;11.50;99.90
63383;DHT22;49512;48.744;9.176;2023-03-01T16:20:18;11.50;99.90
63383;DHT22;49512;48.744;9.176;2023-03-01T16:22:44;11.60;99.90
63383;DHT22;49512;48.744;9.176;2023-03-01T16:25:11;11.50;99.90
63383;DHT22;49512;48.744;9.176;2023-03-01T16:27:37;11.50;99.90
63383;DHT22;49512;48.744;9.176;2023-03-01T16:30:03;11.50;99.90
63383;DHT22;49512;48.744;9.176;2023-03-01T16:32:29;11.50;99.90
63383;DHT22;49512;48.744;9.176;2023-03-01T16:34:54;11.50;99.90
63383;DHT22;49512;48.744;9.176;2023-03-01T16:37:20;11.50;99.90
63383;DHT22;49512;48.744;9.176;2023-03-01T16:39:47;11.50;99.90
63383;DHT22;49512;48.744;9.176;2023-03-01T16:42:16;11.50;99.90
63383;DHT22;49512;48.744;9.176;2023-03-01T16:44:41;11.50;99.90
63383;DHT22;49512;48.744;9.176;2023-03-01T16:47:07;11.50;99.90
63383;DHT22;49512;48.744;9.176;2023-03-01T16:49:32;11.50;99.90
63383;DHT22;49512;48.744;9.176;2023-03-01T16:51:58;11.50;99.90
63383;DHT22;49512;48.744;9.176;2023-03-01T16:54:27;11.50;99.90
63383;DHT22;49512;48.744;9.176;2023-03-01T16:56:53;11.50;99.90
63383;DHT22;49512;48.744;9.176;2023-03-01T16:59:20;11.50;99.90
63383;DHT22;49512;48.744;9.176;2023-03-01T17:01:46;11.50;99.90
63383;DHT22;49512;48.744;9.176;2023-03-01T17:04:12;11.50;99.90
63383;DHT22;49512;48.744;9.176;2023-03-01T17:06:38;11.50;99.90
63383;DHT22;49512;48.744;9.176;2023-03-01T17:09:04;11.30;99.90
63383;DHT22;49512;48.744;9.176;2023-03-01T17:11:29;11.30;99.90
63383;DHT22;49512;48.744;9.176;2023-03-01T17:13:55;11.40;99.90
63383;DHT22;49512;48.744;9.176;2023-03-01T17:16:24;11.40;99.90
63383;DHT22;49512;48.744;9.176;2023-03-01T17:18:51;11.40;99.70
63383;DHT22;49512;48.744;9.176;2023-03-01T17:21:20;11.40;99.40
63383;DHT22;49512;48.744;9.176;2023-03-01T17:23:46;11.40;99.30